Time;durP1;ratioP1;P1;durP2;ratioP2;P2;SDS_P1;SDS_P2;PMS_P1;PMS_P2;Temp;Humidity;BMP_temperature;BMP_pressure;BME280_temperature;BME280_humidity;BME280_pressure;Samples;Min_cycle;Max_cycle;Signal;HPM_P1;HPM_P2
2022/04/11 00:00:48;;;;;;;20.88;10.53;;;;;;;2.55;75.94;100682.89;1739285;81;26274;-77
2022/04/11 00:03:15;;;;;;;22.90;9.88;;;;;;;2.55;76.05;100687.33;1741041;81;26082;-78
2022/04/11 00:05:41;;;;;;;17.52;8.53;;;;;;;2.51;76.15;100690.73;1701908;83;27447;-78
2022/04/11 00:08:08;;;;;;;17.35;9.45;;;;;;;2.45;76.28;100685.14;1681272;84;26475;-77
2022/04/11 00:10:34;;;;;;;19.92;8.65;;;;;;;2.45;76.35;100690.43;1671594;84;25778;-77
2022/04/11 00:13:04;;;;;;;18.07;9.08;;;;;;;2.45;76.50;100688.63;1691365;84;26539;-77
2022/04/11 00:15:33;;;;;;;16.23;9.13;;;;;;;2.43;76.48;100693.22;1696823;83;25968;-77
2022/04/11 00:18:02;;;;;;;19.32;9.63;;;;;;;2.39;76.61;100690.48;1695787;83;27477;-77
2022/04/11 00:20:29;;;;;;;17.50;9.78;;;;;;;2.33;76.75;100694.48;1672220;85;26485;-78
2022/04/11 00:22:56;;;;;;;20.57;10.90;;;;;;;2.32;76.91;100692.82;1743028;81;25779;-77
2022/04/11 00:25:23;;;;;;;16.85;10.10;;;;;;;2.31;77.04;100698.22;1746409;81;25807;-77
2022/04/11 00:27:49;;;;;;;19.82;9.88;;;;;;;2.28;77.17;100699.81;1743913;81;25822;-77
2022/04/11 00:30:16;;;;;;;22.32;10.23;;;;;;;2.23;77.34;100710.78;1704361;83;27448;-77
2022/04/11 00:32:47;;;;;;;16.57;10.72;;;;;;;2.21;77.41;100699.50;1704168;83;25888;-77
2022/04/11 00:35:13;;;;;;;23.60;12.43;;;;;;;2.19;77.54;100700.59;1711338;83;25830;-78
2022/04/11 00:37:40;;;;;;;19.60;11.15;;;;;;;2.17;77.60;100704.70;1706514;83;26479;-77
2022/04/11 00:40:09;;;;;;;21.17;11.35;;;;;;;2.18;77.78;100709.00;1709185;83;26172;-79
2022/04/11 00:42:35;;;;;;;21.55;11.30;;;;;;;2.15;77.91;100717.20;1701403;83;27522;-78
2022/04/11 00:45:03;;;;;;;17.82;10.63;;;;;;;2.14;78.14;100707.59;1702966;83;25928;-77
2022/04/11 00:47:30;;;;;;;26.10;13.00;;;;;;;2.13;78.22;100720.94;1702747;83;25904;-78
2022/04/11 00:50:00;;;;;;;26.97;12.23;;;;;;;2.13;78.11;100716.98;1697108;83;26710;-77
2022/04/11 00:52:30;;;;;;;20.77;11.83;;;;;;;2.11;78.24;100714.47;1687901;83;25799;-78
2022/04/11 00:54:58;;;;;;;25.85;13.93;;;;;;;2.10;78.43;100717.22;1704680;83;28374;-78
2022/04/11 00:57:25;;;;;;;28.25;12.43;;;;;;;2.06;78.54;100720.62;1690474;83;25792;-78
2022/04/11 00:59:53;;;;;;;24.90;13.88;;;;;;;2.03;78.52;100723.51;1702905;83;26000;-78
2022/04/11 01:02:19;;;;;;;24.45;13.00;;;;;;;2.06;78.61;100729.02;1702986;83;27045;-78
2022/04/11 01:04:45;;;;;;;25.92;13.43;;;;;;;2.05;78.97;100724.72;1702467;83;25798;-77
2022/04/11 01:07:12;;;;;;;27.60;14.23;;;;;;;2.02;78.79;100728.93;1702388;83;27504;-78
2022/04/11 01:09:40;;;;;;;26.17;15.32;;;;;;;2.02;78.95;100728.45;1702926;83;25786;-78
2022/04/11 01:12:07;;;;;;;30.32;17.20;;;;;;;2.01;78.91;100731.23;1708893;83;25770;-79
2022/04/11 01:14:34;;;;;;;27.22;15.40;;;;;;;2.00;79.04;100736.99;1701164;83;26544;-77
2022/04/11 01:17:02;;;;;;;23.32;14.68;;;;;;;1.99;78.95;100740.59;1711543;83;25862;-78
2022/04/11 01:19:28;;;;;;;25.88;17.77;;;;;;;1.96;79.03;100743.50;1696758;83;27462;-78
2022/04/11 01:21:54;;;;;;;30.05;14.60;;;;;;;1.93;79.20;100745.55;1705006;83;25782;-78
2022/04/11 01:24:23;;;;;;;23.07;13.60;;;;;;;1.89;79.31;100746.30;1697121;83;25852;-78
2022/04/11 01:26:51;;;;;;;24.12;12.47;;;;;;;1.87;79.54;100748.23;1709358;83;25934;-79
2022/04/11 01:29:19;;;;;;;21.87;13.93;;;;;;;1.85;79.99;100744.03;1669439;85;26152;-78
2022/04/11 01:31:46;;;;;;;23.25;13.38;;;;;;;1.83;79.61;100742.00;1747042;81;27627;-78
2022/04/11 01:34:14;;;;;;;24.60;14.45;;;;;;;1.83;79.87;100748.13;1744761;81;26422;-78
2022/04/11 01:36:40;;;;;;;22.20;12.98;;;;;;;1.83;79.79;100748.61;1744374;82;25268;-78
2022/04/11 01:39:09;;;;;;;26.35;14.05;;;;;;;1.85;79.76;100753.27;1746926;82;26326;-78
2022/04/11 01:41:35;;;;;;;26.73;16.40;;;;;;;1.80;79.92;100753.66;1744902;81;25814;-78
2022/04/11 01:44:02;;;;;;;27.07;15.70;;;;;;;1.77;80.20;100756.56;1744652;82;28255;-78
2022/04/11 01:46:29;;;;;;;24.90;15.40;;;;;;;1.74;80.25;100758.13;1745275;82;25739;-79
2022/04/11 01:48:57;;;;;;;30.65;15.05;;;;;;;1.72;80.19;100761.85;1754111;81;25752;-78
2022/04/11 01:51:23;;;;;;;28.40;14.98;;;;;;;1.69;80.33;100760.80;1757192;81;25750;-77
2022/04/11 01:53:49;;;;;;;28.15;15.10;;;;;;;1.66;80.51;100765.00;1754382;81;25902;-79
2022/04/11 01:56:16;;;;;;;28.70;15.28;;;;;;;1.65;80.58;100764.16;1754462;81;27505;-78
2022/04/11 01:58:42;;;;;;;24.60;15.40;;;;;;;1.66;80.64;100774.24;1754867;81;25271;-78
2022/04/11 02:01:09;;;;;;;24.25;15.83;;;;;;;1.67;80.63;100768.02;1754027;81;25881;-78
2022/04/11 02:03:35;;;;;;;26.77;15.23;;;;;;;1.66;80.57;100769.81;1753763;81;25834;-78
2022/04/11 02:06:01;;;;;;;26.87;15.85;;;;;;;1.65;80.82;100769.94;1754626;80;25751;-78
2022/04/11 02:08:27;;;;;;;27.22;15.03;;;;;;;1.64;80.93;100773.06;1755059;81;28293;-78
2022/04/11 02:10:55;;;;;;;30.30;16.57;;;;;;;1.65;80.98;100765.48;1754690;81;26145;-78
2022/04/11 02:13:21;;;;;;;28.25;16.62;;;;;;;1.67;81.05;100763.55;1754902;81;25955;-78
2022/04/11 02:15:48;;;;;;;29.35;16.12;;;;;;;1.71;81.06;100774.72;1753721;81;25896;-78
2022/04/11 02:18:14;;;;;;;21.48;14.78;;;;;;;1.72;81.10;100775.05;1756981;81;25774;-79
2022/04/11 02:20:40;;;;;;;28.90;16.20;;;;;;;1.70;81.16;100772.55;1757424;81;27764;-78
2022/04/11 02:23:08;;;;;;;31.30;17.23;;;;;;;1.71;81.16;100776.03;1754425;81;26383;-78
2022/04/11 02:25:36;;;;;;;28.77;16.05;;;;;;;1.73;81.41;100772.31;1756084;81;25840;-78
2022/04/11 02:28:04;;;;;;;33.18;15.53;;;;;;;1.74;81.62;100773.97;1755376;81;25980;-78
2022/04/11 02:30:31;;;;;;;26.93;14.95;;;;;;;1.73;81.68;100773.63;1754586;81;26395;-79
2022/04/11 02:32:58;;;;;;;26.87;15.58;;;;;;;1.75;81.82;100773.50;1755571;80;28026;-79
2022/04/11 02:35:24;;;;;;;26.62;16.10;;;;;;;1.74;82.19;100773.97;1754377;81;25341;-78
2022/04/11 02:37:52;;;;;;;28.98;16.73;;;;;;;1.73;82.12;100763.07;1756837;81;25911;-79
2022/04/11 02:40:19;;;;;;;29.60;18.12;;;;;;;1.74;82.01;100770.01;1741898;81;25770;-79
2022/04/11 02:42:50;;;;;;;25.95;16.12;;;;;;;1.76;81.97;100775.16;1725964;80;25941;-79
2022/04/11 02:45:17;;;;;;;29.12;17.50;;;;;;;1.73;81.90;100773.63;1741327;81;27728;-79
2022/04/11 02:47:44;;;;;;;26.40;15.75;;;;;;;1.73;81.85;100779.38;1755424;81;25772;-78
2022/04/11 02:50:12;;;;;;;26.02;15.38;;;;;;;1.73;81.98;100780.23;1729884;81;26040;-78
2022/04/11 02:52:57;;;;;;;25.57;16.00;;;;;;;1.73;81.82;100780.70;1755789;80;25784;-77
2022/04/11 02:55:24;;;;;;;28.17;16.12;;;;;;;1.70;81.73;100788.39;1755368;81;25901;-77
2022/04/11 02:57:50;;;;;;;25.00;16.12;;;;;;;1.68;81.93;100784.20;1755471;81;27407;-77
2022/04/11 03:00:18;;;;;;;31.17;16.93;;;;;;;1.65;82.05;100778.68;1740131;81;25793;-77
2022/04/11 03:02:46;;;;;;;29.90;16.27;;;;;;;1.66;82.05;100780.37;1754029;80;25844;-77
2022/04/11 03:05:13;;;;;;;27.32;17.05;;;;;;;1.65;82.14;100777.36;1731335;81;25853;-77
2022/04/11 03:07:40;;;;;;;33.75;17.65;;;;;;;1.65;81.99;100777.36;1756412;80;25818;-77
2022/04/11 03:10:08;;;;;;;30.00;16.32;;;;;;;1.64;82.05;100785.41;1756795;81;27980;-78
2022/04/11 03:12:35;;;;;;;30.17;16.15;;;;;;;1.61;82.31;100785.17;1755962;81;25835;-77
2022/04/11 03:15:04;;;;;;;27.07;16.25;;;;;;;1.56;82.28;100789.51;1756835;81;25990;-78
2022/04/11 03:17:30;;;;;;;26.15;15.50;;;;;;;1.54;82.34;100787.95;1756441;81;26558;-77
2022/04/11 03:19:57;;;;;;;29.65;16.67;;;;;;;1.50;82.43;100777.28;1755789;81;25983;-78
2022/04/11 03:22:23;;;;;;;34.73;18.37;;;;;;;1.50;82.63;100783.88;1753958;80;27426;-78
2022/04/11 03:24:51;;;;;;;37.40;19.95;;;;;;;1.52;82.75;100785.45;1755640;81;25874;-77
2022/04/11 03:27:17;;;;;;;33.35;19.42;;;;;;;1.52;82.70;100788.55;1757149;81;26347;-79
2022/04/11 03:29:44;;;;;;;28.30;17.27;;;;;;;1.52;82.72;100790.72;1755271;81;26425;-78
2022/04/11 03:32:10;;;;;;;28.90;17.77;;;;;;;1.52;83.04;100792.05;1754267;80;26115;-78
2022/04/11 03:34:38;;;;;;;31.82;18.98;;;;;;;1.51;83.00;100794.34;1754598;80;27467;-78
2022/04/11 03:37:05;;;;;;;23.87;15.58;;;;;;;1.51;83.09;100793.50;1752727;81;25871;-77
2022/04/11 03:39:33;;;;;;;30.20;17.65;;;;;;;1.49;83.05;100792.31;1741640;81;26469;-78
2022/04/11 03:41:59;;;;;;;27.00;15.43;;;;;;;1.49;83.27;100793.63;1749760;79;26354;-78
2022/04/11 03:44:28;;;;;;;29.63;17.62;;;;;;;1.52;83.52;100800.44;1767492;81;25728;-77
2022/04/11 03:46:56;;;;;;;28.10;14.87;;;;;;;1.55;83.40;100805.48;1767005;81;27456;-77
2022/04/11 03:49:24;;;;;;;29.70;16.40;;;;;;;1.55;83.60;100804.16;1745355;81;25577;-78
2022/04/11 03:51:51;;;;;;;30.55;17.27;;;;;;;1.56;83.63;100805.34;1757000;81;25747;-78
2022/04/11 03:54:17;;;;;;;31.15;15.10;;;;;;;1.60;83.64;100809.07;1751900;80;26037;-79
2022/04/11 03:56:44;;;;;;;25.50;15.78;;;;;;;1.61;83.70;100816.86;1754558;81;25801;-78
2022/04/11 03:59:10;;;;;;;25.37;14.65;;;;;;;1.61;83.89;100812.89;1755906;81;28050;-77
2022/04/11 04:01:38;;;;;;;29.05;16.65;;;;;;;1.63;83.99;100813.61;1755788;81;26548;-79
2022/04/11 04:04:05;;;;;;;29.05;16.23;;;;;;;1.67;84.35;100812.90;1753774;81;25944;-77
2022/04/11 04:06:31;;;;;;;26.40;14.95;;;;;;;1.68;84.34;100813.23;1754155;81;25845;-78
2022/04/11 04:08:59;;;;;;;27.62;16.00;;;;;;;1.72;84.39;100818.15;1750472;81;25302;-78
2022/04/11 04:11:31;;;;;;;33.40;17.15;;;;;;;1.75;84.44;100815.75;1754264;81;28289;-78
2022/04/11 04:14:01;;;;;;;29.10;16.95;;;;;;;1.78;84.44;100818.12;1744810;81;26013;-78
2022/04/11 04:16:28;;;;;;;29.02;16.32;;;;;;;1.80;84.44;100817.51;1754082;81;26598;-78
2022/04/11 04:18:56;;;;;;;29.20;16.20;;;;;;;1.83;84.50;100822.08;1753934;81;26121;-77
2022/04/11 04:21:23;;;;;;;30.90;17.02;;;;;;;1.85;84.59;100825.43;1752897;81;25752;-78
2022/04/11 04:23:49;;;;;;;30.55;16.82;;;;;;;1.89;84.57;100820.72;1755994;81;27516;-78
2022/04/11 04:26:17;;;;;;;31.23;16.40;;;;;;;1.94;84.69;100824.69;1754807;80;26183;-78
2022/04/11 04:28:44;;;;;;;28.00;16.77;;;;;;;1.96;84.69;100829.83;1756538;81;25752;-78
2022/04/11 04:31:11;;;;;;;24.90;14.78;;;;;;;2.01;84.97;100838.23;1729117;81;25962;-77
2022/04/11 04:33:38;;;;;;;29.92;15.45;;;;;;;2.00;84.86;100833.42;1729606;81;25879;-78
2022/04/11 04:36:05;;;;;;;25.92;15.23;;;;;;;2.02;85.09;100839.41;1756263;81;27522;-77
2022/04/11 04:38:31;;;;;;;29.40;16.85;;;;;;;2.04;85.45;100829.55;1755742;81;25778;-79
2022/04/11 04:40:58;;;;;;;24.80;14.75;;;;;;;2.07;85.29;100842.52;1756063;80;25712;-78
2022/04/11 04:43:24;;;;;;;25.97;14.10;;;;;;;2.09;85.40;100841.06;1754627;81;25811;-78
2022/04/11 04:45:51;;;;;;;24.95;14.55;;;;;;;2.11;86.01;100842.62;1756588;81;26059;-78
2022/04/11 04:48:31;;;;;;;25.82;14.85;;;;;;;2.10;85.76;100843.58;1726806;81;28289;-78
2022/04/11 04:50:58;;;;;;;23.73;14.73;;;;;;;2.10;85.60;100844.89;1754087;80;25768;-79
2022/04/11 04:53:25;;;;;;;26.27;16.67;;;;;;;2.14;85.72;100847.63;1742846;81;25749;-78
2022/04/11 04:55:52;;;;;;;25.70;14.73;;;;;;;2.16;85.54;100849.67;1730219;81;25842;-78
2022/04/11 04:58:18;;;;;;;27.45;14.55;;;;;;;2.18;85.94;100851.70;1755202;81;25902;-78
2022/04/11 05:00:45;;;;;;;32.28;18.07;;;;;;;2.19;85.86;100853.86;1754570;81;27488;-78
2022/04/11 05:03:13;;;;;;;33.53;16.12;;;;;;;2.18;85.80;100857.48;1753651;81;25824;-78
2022/04/11 05:05:39;;;;;;;27.90;15.13;;;;;;;2.19;85.58;100857.83;1757108;81;25818;-79
2022/04/11 05:08:06;;;;;;;23.60;14.45;;;;;;;2.21;85.64;100861.18;1754482;81;25791;-77
2022/04/11 05:10:33;;;;;;;29.32;15.38;;;;;;;2.21;85.77;100864.67;1755663;81;25349;-78
2022/04/11 05:12:59;;;;;;;27.75;14.98;;;;;;;2.23;85.77;100865.85;1755593;80;27537;-79
2022/04/11 05:15:26;;;;;;;33.38;17.50;;;;;;;2.25;85.63;100864.77;1754584;80;25863;-79
2022/04/11 05:17:55;;;;;;;34.60;16.52;;;;;;;2.28;85.65;100874.25;1753317;81;25830;-77
2022/04/11 05:20:22;;;;;;;28.30;14.45;;;;;;;2.30;85.74;100873.16;1756465;81;26018;-78
2022/04/11 05:22:49;;;;;;;24.87;13.22;;;;;;;2.32;85.93;100867.27;1755558;81;26381;-78
2022/04/11 05:25:16;;;;;;;19.48;11.75;;;;;;;2.33;85.84;100874.22;1756676;81;28369;-78
2022/04/11 05:27:44;;;;;;;26.02;14.35;;;;;;;2.33;86.05;100872.89;1755894;81;26014;-79
2022/04/11 05:30:11;;;;;;;23.50;12.60;;;;;;;2.35;85.86;100867.50;1756039;81;25801;-78
2022/04/11 05:32:37;;;;;;;24.32;14.40;;;;;;;2.36;85.91;100871.80;1755380;81;25944;-79
2022/04/11 05:35:06;;;;;;;25.72;13.93;;;;;;;2.34;85.53;100868.45;1757008;81;25731;-78
2022/04/11 05:37:32;;;;;;;23.57;14.80;;;;;;;2.34;85.43;100867.97;1754921;81;28338;-78
2022/04/11 05:39:58;;;;;;;21.95;13.35;;;;;;;2.34;85.23;100873.73;1754098;81;25772;-79
2022/04/11 05:42:25;;;;;;;25.23;15.43;;;;;;;2.35;85.18;100873.60;1755103;81;26339;-78
2022/04/11 05:44:52;;;;;;;26.27;14.60;;;;;;;2.41;85.66;100875.39;1755311;81;25946;-78
2022/04/11 05:47:18;;;;;;;27.95;14.58;;;;;;;2.45;85.91;100880.77;1753783;81;25788;-78
2022/04/11 05:49:46;;;;;;;24.15;14.60;;;;;;;2.51;85.92;100887.71;1746638;81;27489;-78
2022/04/11 05:52:16;;;;;;;29.12;13.83;;;;;;;2.58;86.07;100884.07;1746501;81;25918;-78
2022/04/11 05:54:42;;;;;;;34.77;21.70;;;;;;;2.63;85.88;100888.50;1745891;82;26457;-78
2022/04/11 05:57:09;;;;;;;54.10;34.48;;;;;;;2.70;85.80;100883.88;1746608;82;25940;-78
2022/04/11 05:59:36;;;;;;;29.67;20.17;;;;;;;2.78;85.85;100884.56;1743789;82;25786;-78
2022/04/11 06:02:03;;;;;;;29.48;19.45;;;;;;;2.87;85.87;100888.57;1739888;82;28333;-77
2022/04/11 06:04:29;;;;;;;25.90;15.55;;;;;;;2.98;85.82;100884.53;1735901;82;25762;-78
2022/04/11 06:06:56;;;;;;;26.02;15.25;;;;;;;3.13;85.85;100895.13;1741170;82;25758;-78
2022/04/11 06:09:22;;;;;;;22.60;13.10;;;;;;;3.26;85.68;100889.61;1743895;82;25915;-78
2022/04/11 06:11:49;;;;;;;27.07;16.05;;;;;;;3.38;85.55;100891.69;1744188;82;26046;-79
2022/04/11 06:14:15;;;;;;;23.80;14.83;;;;;;;3.44;85.46;100893.31;1744242;82;28290;-78
2022/04/11 06:16:42;;;;;;;28.10;12.95;;;;;;;3.49;85.39;100895.53;1725282;81;25738;-76
2022/04/11 06:19:09;;;;;;;20.92;11.25;;;;;;;3.52;84.86;100898.77;1747231;82;25780;-78
2022/04/11 06:21:35;;;;;;;21.10;12.00;;;;;;;3.54;84.55;100902.13;1742918;81;25804;-78
2022/04/11 06:24:01;;;;;;;19.62;10.90;;;;;;;3.57;84.56;100908.97;1718639;82;26257;-78
2022/04/11 06:26:28;;;;;;;21.93;11.30;;;;;;;3.57;84.11;100905.81;1744858;81;27527;-77
2022/04/11 06:28:54;;;;;;;17.62;10.32;;;;;;;3.60;84.12;100907.35;1743760;81;25985;-78
2022/04/11 06:31:21;;;;;;;17.85;9.83;;;;;;;3.62;83.97;100914.68;1746347;82;25766;-78
2022/04/11 06:33:49;;;;;;;20.75;11.38;;;;;;;3.65;83.85;100908.65;1744325;82;25948;-78
2022/04/11 06:36:15;;;;;;;25.40;11.50;;;;;;;3.65;83.44;100910.45;1744069;81;25871;-78
2022/04/11 06:38:41;;;;;;;20.85;11.75;;;;;;;3.66;83.76;100905.01;1718185;82;27440;-79
2022/04/11 06:41:08;;;;;;;22.75;12.10;;;;;;;3.68;83.52;100907.03;1744320;81;26552;-78
2022/04/11 06:43:34;;;;;;;25.23;11.85;;;;;;;3.74;83.82;100906.48;1743980;80;25806;-78
2022/04/11 06:46:03;;;;;;;23.77;11.90;;;;;;;3.80;83.18;100909.95;1743528;81;25768;-77
2022/04/11 06:48:31;;;;;;;19.25;11.80;;;;;;;3.83;83.30;100910.98;1747382;81;25815;-78
2022/04/11 06:50:57;;;;;;;22.58;12.25;;;;;;;3.88;83.18;100918.52;1721925;82;27445;-79
2022/04/11 06:53:24;;;;;;;24.37;12.95;;;;;;;3.89;82.85;100921.03;1751108;80;25298;-78
2022/04/11 06:55:50;;;;;;;22.58;13.65;;;;;;;3.93;82.98;100917.12;1754394;81;25799;-78
2022/04/11 06:58:17;;;;;;;25.40;12.18;;;;;;;3.99;83.11;100917.56;1753887;81;25895;-78
2022/04/11 07:00:45;;;;;;;26.48;13.40;;;;;;;4.04;82.75;100920.66;1754118;81;25792;-78
2022/04/11 07:03:11;;;;;;;36.77;19.80;;;;;;;4.03;82.78;100920.29;1754219;81;27423;-78
2022/04/11 07:05:39;;;;;;;25.45;14.73;;;;;;;4.06;82.56;100918.70;1753567;81;26329;-79
2022/04/11 07:08:07;;;;;;;24.72;13.80;;;;;;;4.07;82.31;100916.38;1754403;81;25897;-78
2022/04/11 07:10:33;;;;;;;22.42;13.68;;;;;;;4.12;82.39;100920.80;1754459;81;26495;-78
2022/04/11 07:13:00;;;;;;;22.22;13.70;;;;;;;4.25;83.07;100922.70;1754471;81;25844;-77
2022/04/11 07:15:26;;;;;;;23.67;15.85;;;;;;;4.35;82.92;100924.38;1754168;81;28286;-78
2022/04/11 07:17:53;;;;;;;23.57;15.40;;;;;;;4.42;82.25;100925.99;1753590;81;25906;-77
2022/04/11 07:20:19;;;;;;;23.87;16.25;;;;;;;4.55;82.70;100923.90;1753270;81;25690;-78
2022/04/11 07:22:45;;;;;;;28.23;17.12;;;;;;;4.65;81.95;100923.39;1753304;80;25823;-78
2022/04/11 07:25:12;;;;;;;23.80;15.53;;;;;;;4.68;81.52;100928.44;1754049;81;26545;-79
2022/04/11 07:27:38;;;;;;;22.45;16.25;;;;;;;4.78;81.48;100930.58;1753865;81;28308;-78
2022/04/11 07:30:05;;;;;;;27.20;14.83;;;;;;;4.84;81.35;100930.01;1753391;81;25842;-78
2022/04/11 07:32:31;;;;;;;25.10;15.72;;;;;;;4.93;81.14;100937.12;1752981;81;25903;-78
2022/04/11 07:34:58;;;;;;;22.62;14.47;;;;;;;4.98;81.25;100933.56;1754259;81;26542;-78
2022/04/11 07:37:28;;;;;;;30.35;15.55;;;;;;;5.02;80.51;100932.30;1754105;81;25802;-78
2022/04/11 07:39:54;;;;;;;22.00;13.85;;;;;;;5.07;80.70;100936.66;1753657;81;27435;-78
2022/04/11 07:42:21;;;;;;;19.95;13.50;;;;;;;5.17;80.42;100933.52;1752302;80;25744;-78
2022/04/11 07:44:47;;;;;;;19.60;11.48;;;;;;;5.30;80.16;100933.20;1754235;81;26022;-78
2022/04/11 07:47:13;;;;;;;16.12;9.88;;;;;;;5.35;80.08;100933.09;1753897;81;26642;-78
2022/04/11 07:49:40;;;;;;;16.62;10.00;;;;;;;5.39;79.39;100940.27;1753840;81;26255;-78
2022/04/11 07:52:08;;;;;;;17.82;9.50;;;;;;;5.43;79.13;100941.69;1754165;81;28274;-78
2022/04/11 07:54:34;;;;;;;21.15;10.82;;;;;;;5.43;77.79;100943.83;1720590;83;25744;-78
2022/04/11 07:57:01;;;;;;;16.93;10.63;;;;;;;5.41;78.32;100944.46;1695985;83;25794;-78
2022/04/11 07:59:27;;;;;;;16.57;9.38;;;;;;;5.39;78.18;100950.41;1695807;83;25988;-79
2022/04/11 08:01:53;;;;;;;15.18;9.33;;;;;;;5.32;77.68;100951.96;1705824;83;25777;-78
2022/04/11 08:04:20;;;;;;;19.17;9.18;;;;;;;5.25;77.92;100956.69;1705985;82;28317;-78
2022/04/11 08:06:46;;;;;;;12.35;8.65;;;;;;;5.23;77.92;100961.30;1706181;83;25791;-78
2022/04/11 08:09:12;;;;;;;16.30;8.80;;;;;;;5.21;77.59;100963.27;1705863;83;25911;-79
2022/04/11 08:11:38;;;;;;;16.65;9.00;;;;;;;5.19;77.67;100966.55;1688130;84;27044;-78
2022/04/11 08:14:04;;;;;;;16.73;9.08;;;;;;;5.18;77.29;100971.50;1695663;83;25809;-78
2022/04/11 08:16:31;;;;;;;18.65;11.12;;;;;;;5.18;77.48;100970.17;1694500;84;26938;-79
2022/04/11 08:18:58;;;;;;;22.62;12.65;;;;;;;5.18;76.95;100974.16;1694678;84;25785;-78
2022/04/11 08:21:24;;;;;;;16.73;10.63;;;;;;;5.12;77.32;100972.08;1700152;83;25357;-79
2022/04/11 08:23:50;;;;;;;16.77;10.98;;;;;;;5.12;77.38;100972.08;1697793;84;25943;-78
2022/04/11 08:26:16;;;;;;;15.45;10.35;;;;;;;5.17;77.68;100968.52;1697705;84;25795;-77
2022/04/11 08:28:43;;;;;;;19.40;8.83;;;;;;;5.24;77.90;100972.25;1704245;83;27446;-78
2022/04/11 08:31:09;;;;;;;17.77;9.33;;;;;;;5.28;77.28;100973.16;1694963;83;26081;-78
2022/04/11 08:33:35;;;;;;;18.67;9.05;;;;;;;5.29;77.22;100971.34;1694091;83;25867;-78
2022/04/11 08:36:03;;;;;;;16.02;8.30;;;;;;;5.37;77.56;100970.97;1695780;83;26458;-78
2022/04/11 08:38:31;;;;;;;12.35;7.55;;;;;;;5.49;77.08;100963.16;1705719;83;26026;-78
2022/04/11 08:41:02;;;;;;;17.80;8.03;;;;;;;5.61;76.39;100963.83;1706050;83;27472;-79
2022/04/11 08:43:30;;;;;;;;;;;;;;;5.72;76.03;100970.78;1708464;82;25608;-78
2022/04/11 08:46:00;;;;;;;16.00;7.92;;;;;;;5.83;75.64;100966.61;1706089;83;25735;-78
2022/04/11 08:48:26;;;;;;;17.42;11.12;;;;;;;5.96;76.22;100964.48;1719418;83;26686;-77
2022/04/11 08:50:53;;;;;;;17.52;9.43;;;;;;;6.09;74.52;100971.09;1693050;84;25773;-79
2022/04/11 08:53:22;;;;;;;17.62;11.28;;;;;;;6.15;75.13;100969.68;1690400;84;27480;-78
2022/04/11 08:55:50;;;;;;;15.78;8.73;;;;;;;6.20;74.97;100974.07;1695752;84;25290;-78
2022/04/11 08:58:17;;;;;;;16.73;13.45;;;;;;;6.25;74.48;100973.11;1693932;84;25742;-77
2022/04/11 09:00:43;;;;;;;15.05;9.60;;;;;;;6.29;74.15;100968.34;1713806;83;26598;-78
2022/04/11 09:03:09;;;;;;;13.03;8.15;;;;;;;6.31;74.13;100972.50;1694727;83;25806;-78
2022/04/11 09:05:35;;;;;;;11.18;7.83;;;;;;;6.36;74.04;100969.39;1692717;84;27464;-79
2022/04/11 09:08:02;;;;;;;14.05;7.87;;;;;;;6.40;74.21;100966.77;1695412;84;25916;-78
2022/04/11 09:10:36;;;;;;;18.32;8.20;;;;;;;6.49;74.24;100968.53;1695357;84;25787;-79
2022/04/11 09:13:07;;;;;;;14.73;7.80;;;;;;;6.59;74.38;100968.80;1693431;84;25797;-79
2022/04/11 09:15:42;;;;;;;13.75;7.60;;;;;;;6.69;73.70;100967.41;1692180;84;25713;-78
2022/04/11 09:18:09;;;;;;;11.12;7.35;;;;;;;6.75;73.17;100968.97;1689236;84;27429;-78
2022/04/11 09:20:35;;;;;;;9.13;6.70;;;;;;;6.78;73.47;100962.47;1706968;83;26152;-79
2022/04/11 09:23:01;;;;;;;12.15;6.83;;;;;;;6.78;72.70;100962.47;1705264;83;26037;-78
2022/04/11 09:25:31;;;;;;;13.30;6.92;;;;;;;6.78;72.79;100960.66;1705467;83;26563;-78
2022/04/11 09:28:11;;;;;;;10.72;6.80;;;;;;;6.80;72.74;100960.52;1705377;83;25907;-78
2022/04/11 09:30:39;;;;;;;13.30;7.87;;;;;;;6.82;72.22;100964.67;1696610;84;27481;-77
2022/04/11 09:33:11;;;;;;;9.75;6.83;;;;;;;6.86;72.89;100953.25;1701700;84;25761;-79
2022/04/11 09:35:44;;;;;;;14.55;7.67;;;;;;;7.00;73.03;100954.01;1703800;84;25429;-78
2022/04/11 09:38:16;;;;;;;11.50;6.95;;;;;;;7.16;72.99;100950.64;1675574;84;25811;-79
2022/04/11 09:40:50;;;;;;;28.02;11.90;;;;;;;7.29;72.05;100949.73;1677177;84;25939;-78
2022/04/11 09:43:27;;;;;;;16.00;7.15;;;;;;;7.32;71.75;100957.39;1680504;84;27488;-80
2022/04/11 09:45:55;;;;;;;15.38;7.17;;;;;;;7.32;70.98;100948.91;1705310;83;26500;-78
2022/04/11 09:48:29;;;;;;;12.07;7.08;;;;;;;7.27;70.06;100955.71;1705394;84;25944;-78
2022/04/11 09:50:55;;;;;;;9.70;5.90;;;;;;;7.15;69.64;100955.12;1702140;83;26630;-79
2022/04/11 09:53:30;;;;;;;26.80;10.70;;;;;;;7.09;70.13;100948.25;1705325;83;25923;-78
2022/04/11 09:56:00;;;;;;;15.38;8.30;;;;;;;7.04;70.00;100959.36;1705267;83;28316;-79
2022/04/11 10:00:56;;;;;;;12.75;7.20;;;;;;;6.95;70.21;100954.95;1787714;78;25571;-77
2022/04/11 10:03:23;;;;;;;11.65;6.78;;;;;;;6.84;70.33;100957.38;1761811;80;25894;-77
2022/04/11 10:05:50;;;;;;;13.25;6.65;;;;;;;6.80;71.03;100961.34;1759201;80;27121;-77
2022/04/11 10:08:19;;;;;;;15.03;8.25;;;;;;;6.79;71.40;100957.50;1776770;80;26296;-78
2022/04/11 10:10:45;;;;;;;14.83;6.58;;;;;;;6.83;71.56;100964.19;1761963;80;26187;-77
2022/04/11 10:13:14;;;;;;;14.68;8.03;;;;;;;6.84;71.57;100960.55;1773537;80;25877;-77
2022/04/11 10:15:43;;;;;;;12.53;6.00;;;;;;;6.85;71.57;100961.72;1746775;80;25781;-77
2022/04/11 10:18:15;;;;;;;10.13;5.53;;;;;;;6.91;71.87;100954.93;1746569;80;27502;-77
2022/04/11 10:20:45;;;;;;;10.95;5.50;;;;;;;6.97;70.87;100955.67;1751519;79;25811;-77
2022/04/11 10:23:35;;;;;;;15.95;6.03;;;;;;;7.05;70.71;100958.38;1717594;82;26100;-77
2022/04/11 10:26:15;;;;;;;12.55;5.55;;;;;;;7.11;70.55;100958.25;1714237;83;25800;-77
2022/04/11 10:28:52;;;;;;;10.53;5.45;;;;;;;7.13;70.66;100953.11;1704065;83;25764;-77
2022/04/11 10:31:19;;;;;;;10.00;5.55;;;;;;;7.18;70.08;100960.15;1688649;83;28576;-78
2022/04/11 10:33:56;;;;;;;11.20;4.92;;;;;;;7.17;68.94;100962.45;1706600;83;25961;-77
2022/04/11 10:36:38;;;;;;;12.43;5.15;;;;;;;7.14;69.56;100954.80;1701491;83;26543;-77
2022/04/11 10:39:17;;;;;;;12.33;4.62;;;;;;;7.18;69.29;100954.82;1711272;82;26490;-76
2022/04/11 10:42:02;;;;;;;7.87;4.20;;;;;;;7.27;69.11;100953.86;1712509;82;26473;-77
2022/04/11 10:44:51;;;;;;;8.25;4.20;;;;;;;7.33;66.92;100953.74;1713630;83;27465;-77
2022/04/11 10:47:29;;;;;;;9.85;4.53;;;;;;;7.24;66.69;100952.86;1703713;83;25985;-77
2022/04/11 10:50:01;;;;;;;8.50;4.37;;;;;;;7.18;67.35;100953.48;1713624;83;25856;-78
2022/04/11 10:52:41;;;;;;;10.43;4.42;;;;;;;7.14;66.74;100956.62;1702195;83;26042;-77
2022/04/11 10:55:11;;;;;;;11.97;4.87;;;;;;;7.18;67.04;100956.64;1713629;83;25994;-77
2022/04/11 10:57:45;;;;;;;8.77;4.17;;;;;;;7.21;67.24;100956.31;1703194;83;28493;-78
2022/04/11 11:00:25;;;;;;;9.20;4.22;;;;;;;7.25;67.55;100953.70;1702077;83;26117;-77
2022/04/11 11:03:00;;;;;;;11.55;4.17;;;;;;;7.32;67.16;100948.91;1712626;83;25851;-77
2022/04/11 11:05:36;;;;;;;6.12;3.52;;;;;;;7.34;66.99;100952.25;1684098;83;25837;-78
2022/04/11 11:08:17;;;;;;;8.08;2.70;;;;;;;7.40;66.33;100952.94;1695234;83;25944;-77
2022/04/11 11:10:46;;;;;;;;;;;;;;;7.45;65.40;100953.31;1707178;83;28009;-77
2022/04/11 11:13:30;;;;;;;12.40;3.55;;;;;;;7.47;65.16;100948.66;1711386;83;26590;-77
2022/04/11 11:16:10;;;;;;;6.15;2.40;;;;;;;7.48;64.64;100950.84;1700022;83;25707;-78
2022/04/11 11:18:52;;;;;;;6.50;2.95;;;;;;;7.49;64.11;100955.16;1702501;83;26553;-77
2022/04/11 11:21:44;;;;;;;6.17;3.00;;;;;;;7.49;63.96;100956.00;1711850;83;26034;-77
2022/04/11 11:24:10;;;;;;;4.90;2.72;;;;;;;7.55;63.36;100954.52;1710890;83;27490;-77
2022/04/11 11:26:58;;;;;;;10.55;3.58;;;;;;;7.64;61.70;100955.75;1711852;83;25873;-77
2022/04/11 11:29:34;;;;;;;7.60;3.15;;;;;;;7.67;62.75;100954.11;1701884;83;25770;-77